Time;durP1;ratioP1;P1;durP2;ratioP2;P2;SDS_P1;SDS_P2;PMS_P1;PMS_P2;Temp;Humidity;BMP_temperature;BMP_pressure;BME280_temperature;BME280_humidity;BME280_pressure;Samples;Min_cycle;Max_cycle;Signal;HPM_P1;HPM_P2
2021/12/13 00:01:51;;;;;;;15.23;3.13;;;;;;;8.35;100.00;102542.38;5035436;28;20033;-74
2021/12/13 00:04:34;;;;;;;12.77;2.97;;;;;;;8.32;100.00;102547.84;5035494;28;20041;-77
2021/12/13 00:07:14;;;;;;;10.13;2.92;;;;;;;8.29;100.00;102539.09;5035698;28;20029;-75
2021/12/13 00:09:45;;;;;;;14.27;3.38;;;;;;;8.31;100.00;102549.63;5034852;28;20064;-75
2021/12/13 00:12:11;;;;;;;10.27;3.17;;;;;;;8.31;100.00;102549.63;5017351;28;20033;-75
2021/12/13 00:14:48;;;;;;;7.90;3.08;;;;;;;8.29;100.00;102557.66;5035703;28;20048;-74
2021/12/13 00:17:18;;;;;;;14.93;3.40;;;;;;;8.28;100.00;102553.31;5034947;28;20393;-75
2021/12/13 00:19:49;;;;;;;9.83;3.50;;;;;;;8.28;100.00;102549.78;5034998;28;20045;-75
2021/12/13 00:22:33;;;;;;;11.93;3.10;;;;;;;8.25;100.00;102548.16;5018021;28;20264;-75
2021/12/13 00:25:10;;;;;;;12.35;3.58;;;;;;;8.23;100.00;102542.09;5034911;28;20064;-75
2021/12/13 00:27:53;;;;;;;11.50;3.08;;;;;;;8.20;100.00;102542.25;5034462;28;20041;-75
2021/12/13 00:30:28;;;;;;;8.57;3.22;;;;;;;8.19;100.00;102555.59;5035091;28;20040;-76
2021/12/13 00:32:59;;;;;;;11.15;3.10;;;;;;;8.17;100.00;102553.03;5034728;28;20037;-74
2021/12/13 00:35:48;;;;;;;8.02;3.00;;;;;;;8.12;100.00;102545.31;5034316;28;20029;-75
2021/12/13 00:38:16;;;;;;;8.43;2.65;;;;;;;8.08;100.00;102551.72;5033490;28;20033;-75
2021/12/13 00:40:50;;;;;;;10.57;3.03;;;;;;;8.02;100.00;102551.19;5034463;28;20032;-75
2021/12/13 00:43:30;;;;;;;11.23;3.10;;;;;;;7.97;100.00;102545.25;5016794;28;20539;-74
2021/12/13 00:45:58;;;;;;;7.78;2.85;;;;;;;7.90;100.00;102548.22;5033182;28;20075;-74
2021/12/13 00:48:27;;;;;;;14.63;2.90;;;;;;;7.86;100.00;102546.66;5016475;28;20029;-76
2021/12/13 00:51:11;;;;;;;12.35;2.97;;;;;;;7.84;100.00;102553.00;5033272;28;20033;-75
2021/12/13 00:53:41;;;;;;;11.70;2.85;;;;;;;7.84;100.00;102553.84;5034226;28;20061;-75
2021/12/13 00:56:44;;;;;;;7.47;3.42;;;;;;;7.83;100.00;102554.78;5017453;28;20079;-74
2021/12/13 00:59:30;;;;;;;10.70;3.22;;;;;;;7.85;100.00;102552.03;5034141;28;20033;-75
2021/12/13 01:02:11;;;;;;;8.75;2.80;;;;;;;7.90;100.00;102563.28;5016923;28;20452;-74
2021/12/13 01:04:48;;;;;;;8.38;2.53;;;;;;;7.90;100.00;102557.97;5034272;28;20040;-74
2021/12/13 01:07:32;;;;;;;11.60;2.60;;;;;;;7.92;100.00;102572.00;5033751;28;20041;-74
2021/12/13 01:10:35;;;;;;;13.88;2.90;;;;;;;7.92;100.00;102566.69;5034045;28;20029;-74
2021/12/13 01:13:01;;;;;;;7.78;2.33;;;;;;;7.92;100.00;102564.91;5016255;28;20029;-74
2021/12/13 01:15:38;;;;;;;10.35;2.50;;;;;;;7.89;100.00;102557.09;5032342;28;20095;-75
2021/12/13 01:18:23;;;;;;;15.25;3.17;;;;;;;7.92;100.00;102558.75;5033964;28;20041;-74
2021/12/13 01:21:28;;;;;;;7.03;2.50;;;;;;;7.90;100.00;102560.63;5033635;28;20061;-75
2021/12/13 01:24:04;;;;;;;8.60;2.83;;;;;;;7.90;100.00;102560.63;5033817;28;20108;-75
2021/12/13 01:26:37;;;;;;;4.13;2.10;;;;;;;7.87;100.00;102555.50;5033667;28;20029;-74
2021/12/13 01:29:17;;;;;;;11.45;2.95;;;;;;;7.85;100.00;102557.34;5033680;28;20029;-74
2021/12/13 01:31:53;;;;;;;8.98;2.33;;;;;;;7.90;100.00;102563.28;5033530;28;20029;-75
2021/12/13 01:34:19;;;;;;;10.52;2.17;;;;;;;7.92;100.00;102564.91;5033336;28;20520;-74
2021/12/13 01:37:01;;;;;;;6.40;2.50;;;;;;;7.92;100.00;102572.00;5015440;28;20025;-75
2021/12/13 01:39:30;;;;;;;6.32;2.10;;;;;;;7.92;100.00;102570.19;5033557;28;20037;-77
2021/12/13 01:42:08;;;;;;;8.77;2.25;;;;;;;7.92;100.00;102572.84;5033514;28;20458;-75
2021/12/13 01:44:42;;;;;;;7.03;2.17;;;;;;;7.89;100.00;102573.00;5033597;28;20468;-75
2021/12/13 01:47:34;;;;;;;8.95;2.65;;;;;;;7.87;100.00;102572.25;5033114;28;20034;-74
2021/12/13 01:50:07;;;;;;;;;;;;;;;7.88;100.00;102584.56;5034704;28;20052;-74
2021/12/13 01:52:37;;;;;;;7.20;2.72;;;;;;;7.90;100.00;102577.38;5033333;28;19915;-75
2021/12/13 01:55:13;;;;;;;5.65;3.10;;;;;;;7.94;100.00;102575.41;5016959;28;20359;-74
2021/12/13 01:57:47;;;;;;;6.57;3.03;;;;;;;7.97;100.00;102577.06;5033174;28;20030;-74
2021/12/13 02:00:32;;;;;;;5.95;3.20;;;;;;;7.99;100.00;102577.84;5033222;28;20473;-74
2021/12/13 02:02:59;;;;;;;6.93;3.30;;;;;;;8.00;100.00;102582.19;5033038;28;20029;-75
2021/12/13 02:05:31;;;;;;;8.93;3.60;;;;;;;8.00;100.00;102583.09;5033766;28;20131;-74
2021/12/13 02:08:02;;;;;;;9.57;3.28;;;;;;;7.99;100.00;102583.16;5033439;28;20073;-74
2021/12/13 02:10:36;;;;;;;5.55;3.67;;;;;;;8.01;100.00;102581.28;5036564;28;20120;-75
2021/12/13 02:13:09;;;;;;;12.50;3.90;;;;;;;8.00;100.00;102582.19;5037025;28;20036;-75
2021/12/13 02:18:27;;;;;;;11.27;4.50;;;;;;;7.99;100.00;102581.34;5037417;28;20040;-74
2021/12/13 02:21:04;;;;;;;6.57;4.38;;;;;;;8.01;100.00;102586.56;5037629;28;20044;-75
2021/12/13 02:23:33;;;;;;;9.23;4.15;;;;;;;8.01;100.00;102587.41;5037428;28;20373;-75
2021/12/13 02:25:58;;;;;;;12.27;4.78;;;;;;;8.05;100.00;102588.97;5036799;28;20072;-75
2021/12/13 02:28:30;;;;;;;6.25;4.57;;;;;;;8.07;100.00;102592.41;5038018;28;20354;-75
2021/12/13 02:31:05;;;;;;;9.43;4.78;;;;;;;8.09;100.00;102594.97;5037905;28;20108;-75
2021/12/13 02:33:36;;;;;;;9.73;5.22;;;;;;;8.06;100.00;102595.13;5019980;28;20033;-75
2021/12/13 02:36:09;;;;;;;12.25;5.50;;;;;;;8.03;100.00;102592.66;5020030;28;20035;-75
2021/12/13 02:38:37;;;;;;;12.73;5.80;;;;;;;8.00;100.00;102604.28;5038162;28;20032;-78
2021/12/13 02:41:06;;;;;;;12.25;5.80;;;;;;;7.98;100.00;102594.69;5037875;28;20059;-76
2021/12/13 02:43:37;;;;;;;11.45;6.45;;;;;;;7.95;100.00;102583.28;5037034;28;20037;-75
2021/12/13 02:46:03;;;;;;;10.27;6.00;;;;;;;7.99;100.00;102585.81;5036922;28;20037;-75
2021/12/13 02:48:36;;;;;;;17.45;7.20;;;;;;;7.98;100.00;102600.84;5035493;28;20370;-75
2021/12/13 02:51:08;;;;;;;13.23;7.07;;;;;;;8.01;100.00;102589.22;5037269;28;20393;-75
2021/12/13 02:53:52;;;;;;;11.32;7.20;;;;;;;8.02;100.00;102591.78;5036377;28;20397;-75
2021/12/13 02:56:23;;;;;;;12.43;7.50;;;;;;;8.01;100.00;102594.53;5036792;28;20370;-75
2021/12/13 02:58:51;;;;;;;12.60;7.70;;;;;;;7.99;100.00;102585.81;5036911;28;20434;-76
2021/12/13 03:01:29;;;;;;;16.17;8.27;;;;;;;7.96;100.00;102592.13;5036449;28;20032;-75
2021/12/13 03:03:59;;;;;;;11.75;8.32;;;;;;;7.93;100.00;102590.47;5036327;28;20033;-75
2021/12/13 03:06:30;;;;;;;16.58;8.32;;;;;;;7.93;100.00;102594.94;5036704;28;20036;-75
2021/12/13 03:09:23;;;;;;;14.90;8.27;;;;;;;7.91;100.00;102578.22;5036255;28;20060;-76
2021/12/13 03:11:50;;;;;;;12.05;8.43;;;;;;;7.89;100.00;102580.97;5034608;28;20484;-76
2021/12/13 03:14:20;;;;;;;14.27;8.63;;;;;;;7.92;100.00;102567.53;5036157;28;20029;-75
2021/12/13 03:17:01;;;;;;;14.00;9.07;;;;;;;7.94;100.00;102578.06;5036247;28;20025;-76
2021/12/13 03:19:35;;;;;;;12.48;9.23;;;;;;;7.94;100.00;102564.81;5035916;28;20048;-75
2021/12/13 03:22:40;;;;;;;15.40;9.48;;;;;;;7.93;100.00;102569.28;5035083;28;20037;-75
2021/12/13 03:25:10;;;;;;;14.15;9.40;;;;;;;7.94;100.00;102567.47;5035973;28;20091;-75
2021/12/13 03:27:54;;;;;;;16.25;9.70;;;;;;;7.94;100.00;102567.47;5017927;28;20069;-76
2021/12/13 03:30:25;;;;;;;14.07;9.30;;;;;;;7.94;100.00;102573.66;5036050;28;20060;-76
2021/12/13 03:33:04;;;;;;;18.40;10.13;;;;;;;7.94;100.00;102575.41;5035961;28;20031;-76
2021/12/13 03:35:35;;;;;;;10.65;8.95;;;;;;;7.99;100.00;102575.22;5035579;28;20029;-75
2021/12/13 03:38:04;;;;;;;;;;;;;;;7.98;100.00;102576.97;5035718;28;20480;-76
2021/12/13 03:40:31;;;;;;;15.50;9.27;;;;;;;8.00;100.00;102574.25;5035662;28;19968;-76
2021/12/13 03:43:00;;;;;;;12.73;9.10;;;;;;;8.03;100.00;102567.00;5035555;28;20057;-76
2021/12/13 03:45:33;;;;;;;15.02;9.77;;;;;;;8.02;100.00;102572.41;5036284;28;20025;-75
2021/12/13 03:47:59;;;;;;;16.75;8.85;;;;;;;8.02;100.00;102567.94;5035942;28;20033;-75
2021/12/13 03:50:34;;;;;;;13.43;8.65;;;;;;;8.02;100.00;102565.28;5035676;28;20116;-76
2021/12/13 03:53:03;;;;;;;11.15;8.05;;;;;;;8.02;100.00;102573.25;5035641;28;20033;-75
2021/12/13 03:55:31;;;;;;;13.15;8.13;;;;;;;8.01;100.00;102568.88;5034131;28;20029;-75
2021/12/13 03:58:03;;;;;;;13.23;8.27;;;;;;;8.00;100.00;102563.66;5035447;28;20032;-76
2021/12/13 04:00:30;;;;;;;;;;;;;;;7.99;100.00;102568.09;5035783;28;20022;-76
2021/12/13 04:02:59;;;;;;;11.20;7.45;;;;;;;7.98;100.00;102570.84;5035204;28;20007;-75
2021/12/13 04:05:28;;;;;;;10.23;7.80;;;;;;;7.96;100.00;102562.97;5034850;28;20029;-75
2021/12/13 04:07:57;;;;;;;13.25;8.63;;;;;;;7.95;100.00;102567.38;5035034;28;20029;-76
2021/12/13 04:10:26;;;;;;;12.52;8.05;;;;;;;7.93;100.00;102560.47;5035388;28;20110;-75
2021/12/13 04:12:55;;;;;;;13.05;7.38;;;;;;;7.90;100.00;102558.81;5034676;28;20104;-76
2021/12/13 04:15:45;;;;;;;13.15;7.45;;;;;;;7.91;100.00;102562.31;5034906;28;20032;-75
2021/12/13 04:19:08;;;;;;;10.23;7.13;;;;;;;7.97;100.00;102572.59;5035007;28;20033;-75
2021/12/13 04:21:10;;;;;;;12.52;7.47;;;;;;;7.98;100.00;102568.19;5027404;28;20053;-76
2021/12/13 04:23:38;;;;;;;10.63;7.30;;;;;;;7.96;100.00;102568.25;5034881;28;20055;-75
2021/12/13 04:26:06;;;;;;;10.00;6.53;;;;;;;7.97;100.00;102569.09;5034753;28;20033;-76
2021/12/13 04:28:39;;;;;;;11.73;7.20;;;;;;;7.96;100.00;102568.25;5034394;28;20033;-76
2021/12/13 04:31:09;;;;;;;7.97;7.07;;;;;;;7.94;100.00;102565.69;5017593;28;20036;-75
2021/12/13 04:33:39;;;;;;;12.70;6.88;;;;;;;7.90;100.00;102566.78;5034423;28;20425;-75
2021/12/13 04:36:09;;;;;;;10.95;6.72;;;;;;;7.91;100.00;102567.63;5034313;28;20048;-75
2021/12/13 04:38:51;;;;;;;9.93;6.50;;;;;;;7.92;100.00;102575.50;5034713;28;20037;-75
2021/12/13 04:41:23;;;;;;;10.02;6.70;;;;;;;7.97;100.00;102569.09;5034659;28;20040;-76
2021/12/13 04:43:53;;;;;;;10.32;5.80;;;;;;;7.97;99.37;102567.31;5034108;28;20029;-78
2021/12/13 04:46:21;;;;;;;10.80;5.70;;;;;;;7.95;99.31;102564.72;5017727;28;20034;-75
2021/12/13 04:48:51;;;;;;;10.05;6.15;;;;;;;7.99;99.49;102568.09;5033127;28;20029;-75
2021/12/13 04:51:24;;;;;;;11.88;5.70;;;;;;;7.99;99.19;102561.94;5034108;28;20048;-76
2021/12/13 04:53:50;;;;;;;10.90;6.00;;;;;;;7.95;99.08;102561.25;5033531;28;20032;-77
2021/12/13 04:56:21;;;;;;;6.93;5.60;;;;;;;7.92;98.92;102564.91;5034106;28;20116;-75
2021/12/13 04:58:49;;;;;;;8.85;6.00;;;;;;;7.93;98.93;102563.13;5034789;28;20029;-76
2021/12/13 05:01:18;;;;;;;10.02;5.22;;;;;;;7.94;98.84;102562.16;5034250;28;20049;-76
2021/12/13 05:03:54;;;;;;;11.13;5.40;;;;;;;7.96;98.65;102562.97;5016321;28;20054;-76
2021/12/13 05:06:25;;;;;;;7.47;5.22;;;;;;;7.95;98.38;102570.03;5034146;28;20112;-75
2021/12/13 05:08:54;;;;;;;8.30;4.75;;;;;;;7.95;98.48;102578.00;5034386;28;20028;-75
2021/12/13 05:11:20;;;;;;;9.63;5.00;;;;;;;7.93;98.11;102574.56;5034091;28;20029;-76
2021/12/13 05:13:57;;;;;;;8.10;5.15;;;;;;;7.93;98.58;102577.22;5034121;28;20025;-76
2021/12/13 05:16:53;;;;;;;5.15;4.35;;;;;;;7.97;98.06;102585.00;5033820;28;20037;-77
2021/12/13 05:19:50;;;;;;;6.60;4.60;;;;;;;7.94;98.16;102581.59;5032900;28;20061;-76
2021/12/13 05:22:18;;;;;;;11.30;4.82;;;;;;;7.94;97.67;102586.91;5025189;28;20124;-76
2021/12/13 05:24:49;;;;;;;11.07;5.10;;;;;;;8.00;97.51;102580.44;5033498;28;20044;-75
2021/12/13 05:27:24;;;;;;;5.93;4.20;;;;;;;8.00;97.00;102584.84;5015994;28;20033;-75
2021/12/13 05:29:52;;;;;;;8.48;5.05;;;;;;;7.96;97.27;102581.53;5033406;28;20033;-76
2021/12/13 05:32:24;;;;;;;9.63;4.95;;;;;;;7.96;97.00;102578.88;5034201;28;20051;-76
2021/12/13 05:34:57;;;;;;;9.43;4.70;;;;;;;7.96;96.73;102578.88;5033763;28;20113;-76
2021/12/13 05:37:25;;;;;;;9.63;4.72;;;;;;;7.97;97.15;102580.56;5034254;28;20068;-76
2021/12/13 05:40:08;;;;;;;8.65;4.63;;;;;;;7.94;97.35;102572.75;5015824;28;20033;-77
2021/12/13 05:42:46;;;;;;;5.68;4.18;;;;;;;7.97;96.76;102575.25;5033311;28;20033;-76
2021/12/13 05:45:19;;;;;;;8.50;4.53;;;;;;;8.01;96.15;102574.16;5032642;28;20059;-76
2021/12/13 05:48:04;;;;;;;9.75;4.90;;;;;;;8.01;96.46;102575.97;5033552;28;20478;-76
2021/12/13 05:50:42;;;;;;;7.50;3.95;;;;;;;8.07;95.54;102583.59;5033125;28;20482;-76
2021/12/13 05:53:15;;;;;;;6.55;4.18;;;;;;;8.11;95.08;102590.47;5034063;28;20369;-76
2021/12/13 05:55:48;;;;;;;10.20;4.40;;;;;;;8.15;94.33;102580.53;5033196;28;20025;-76
2021/12/13 05:58:27;;;;;;;6.57;3.80;;;;;;;8.17;94.12;102584.84;5033266;28;20033;-76
2021/12/13 06:00:53;;;;;;;9.75;4.30;;;;;;;8.14;94.07;102579.69;5033931;28;20022;-76
2021/12/13 06:03:30;;;;;;;9.02;4.10;;;;;;;8.12;94.35;102579.78;5033733;28;20038;-76
2021/12/13 06:06:06;;;;;;;7.45;4.72;;;;;;;8.10;94.75;102588.75;5033315;28;20487;-77
2021/12/13 06:08:37;;;;;;;6.88;3.95;;;;;;;8.07;93.93;102588.91;5033253;28;20030;-78
2021/12/13 06:11:09;;;;;;;6.22;3.67;;;;;;;8.04;94.72;102592.56;5031406;28;20033;-74
2021/12/13 06:13:43;;;;;;;8.02;3.78;;;;;;;8.00;94.67;102588.38;5016011;28;20030;-75
2021/12/13 06:16:24;;;;;;;9.70;4.22;;;;;;;8.00;94.76;102604.28;5033317;28;20095;-75
2021/12/13 06:18:58;;;;;;;7.40;4.30;;;;;;;8.05;94.40;102588.13;5015216;28;20057;-73
2021/12/13 06:21:48;;;;;;;10.70;3.90;;;;;;;8.07;94.28;102596.84;5033560;28;20079;-75
2021/12/13 06:24:13;;;;;;;7.25;4.28;;;;;;;8.06;94.06;102597.78;5033294;28;20037;-75
2021/12/13 06:26:40;;;;;;;8.07;4.20;;;;;;;8.06;94.47;102596.00;5033037;28;20033;-76
2021/12/13 06:29:08;;;;;;;6.70;4.53;;;;;;;8.03;94.56;102593.53;5032856;28;20151;-75
2021/12/13 06:31:43;;;;;;;8.15;4.50;;;;;;;8.02;94.88;102590.94;5032737;28;20021;-74
2021/12/13 06:34:16;;;;;;;8.45;4.88;;;;;;;8.04;94.76;102594.38;5016513;28;20388;-75
2021/12/13 06:36:52;;;;;;;11.70;4.97;;;;;;;8.02;94.77;102586.50;5032163;28;20112;-75
2021/12/13 06:39:19;;;;;;;11.00;4.63;;;;;;;8.02;94.67;102594.44;5032899;28;20041;-76
2021/12/13 06:41:51;;;;;;;10.18;5.18;;;;;;;8.00;95.12;102598.97;5031655;28;20033;-76
2021/12/13 06:44:19;;;;;;;6.88;5.13;;;;;;;8.00;94.78;102591.03;5032787;28;20030;-76
2021/12/13 06:46:51;;;;;;;8.43;5.18;;;;;;;8.00;94.53;102591.03;5032761;28;20021;-76
2021/12/13 06:49:35;;;;;;;13.88;6.38;;;;;;;8.01;94.55;102591.88;5031681;28;20481;-76
2021/12/13 06:52:13;;;;;;;8.60;5.53;;;;;;;8.00;95.01;102598.97;5032569;28;20469;-74
2021/12/13 06:54:40;;;;;;;14.82;5.97;;;;;;;8.01;94.80;102608.63;5033964;28;20036;-77
2021/12/13 06:57:14;;;;;;;9.90;6.35;;;;;;;7.97;95.11;102609.72;5036643;28;20029;-83
2021/12/13 06:59:54;;;;;;;11.93;6.70;;;;;;;7.94;95.29;102618.72;5036381;28;20462;-77
2021/12/13 07:02:35;;;;;;;13.25;7.03;;;;;;;7.96;95.32;102615.97;5036820;28;20116;-78
2021/12/13 07:05:13;;;;;;;9.98;6.75;;;;;;;7.99;94.92;102609.66;5037361;28;20033;-73
2021/12/13 07:07:50;;;;;;;8.52;6.45;;;;;;;7.96;94.72;102613.31;5036807;28;20026;-76
2021/12/13 07:10:24;;;;;;;12.45;7.28;;;;;;;7.92;95.28;102625.00;5036416;28;20079;-74
2021/12/13 07:12:56;;;;;;;10.35;6.72;;;;;;;7.88;95.58;102621.69;5035691;28;20057;-77
2021/12/13 07:15:24;;;;;;;16.50;7.00;;;;;;;7.87;95.70;102622.59;5018465;28;20044;-76
2021/12/13 07:18:05;;;;;;;13.63;7.30;;;;;;;7.87;95.91;102632.34;5035969;28;20040;-76
2021/12/13 07:21:09;;;;;;;11.25;6.78;;;;;;;7.85;96.09;102634.19;5036263;28;20050;-76
2021/12/13 07:23:53;;;;;;;14.93;7.22;;;;;;;7.84;95.97;102637.81;5036667;28;20037;-78
2021/12/13 07:26:37;;;;;;;16.90;7.90;;;;;;;7.82;96.33;102639.66;5036538;28;20056;-75
2021/12/13 07:29:10;;;;;;;9.48;7.10;;;;;;;7.81;96.41;102640.59;5036101;28;20037;-76
2021/12/13 07:31:39;;;;;;;10.77;6.80;;;;;;;7.87;96.24;102637.66;5018712;28;20026;-74
2021/12/13 07:34:22;;;;;;;13.40;7.95;;;;;;;7.90;95.87;102640.16;5035760;28;20030;-75
2021/12/13 07:36:58;;;;;;;13.00;7.90;;;;;;;7.89;95.72;102638.41;5018475;28;20038;-74
2021/12/13 07:39:27;;;;;;;13.40;8.00;;;;;;;7.90;95.75;102656.06;5035575;28;20029;-74
2021/12/13 07:42:01;;;;;;;15.20;8.77;;;;;;;7.90;95.71;102648.94;5035874;28;20059;-73
2021/12/13 07:44:44;;;;;;;13.68;7.75;;;;;;;7.91;95.76;102655.09;5036307;28;20029;-75
2021/12/13 07:47:13;;;;;;;13.20;8.43;;;;;;;7.90;95.71;102654.25;5035782;28;20034;-74
2021/12/13 07:49:43;;;;;;;11.23;8.32;;;;;;;7.91;95.96;102663.03;5035478;28;20488;-74
2021/12/13 07:52:21;;;;;;;13.35;8.48;;;;;;;7.90;95.83;102656.06;5035424;28;20083;-74
2021/12/13 07:54:47;;;;;;;16.77;8.48;;;;;;;7.93;95.49;102650.59;5035707;28;20056;-75
2021/12/13 07:57:23;;;;;;;17.67;8.82;;;;;;;7.95;95.83;102652.22;5017923;28;20461;-74
2021/12/13 07:59:49;;;;;;;13.18;8.05;;;;;;;7.94;95.53;102652.28;5035912;28;20049;-75
2021/12/13 08:02:31;;;;;;;19.50;8.80;;;;;;;7.93;95.83;102651.44;5035191;28;20040;-76
2021/12/13 08:05:01;;;;;;;15.25;8.27;;;;;;;7.95;95.72;102654.84;5002141;28;20112;-76
2021/12/13 08:07:41;;;;;;;14.32;8.68;;;;;;;7.93;95.63;102648.78;5035008;28;20034;-75
2021/12/13 08:10:19;;;;;;;14.80;8.77;;;;;;;7.90;95.75;102653.41;5002270;28;20112;-73
2021/12/13 08:12:53;;;;;;;16.98;8.48;;;;;;;7.93;95.49;102650.59;5035500;28;20033;-76
2021/12/13 08:15:24;;;;;;;15.40;8.27;;;;;;;7.97;95.10;102645.97;5034760;28;20484;-79
2021/12/13 08:17:54;;;;;;;14.80;8.68;;;;;;;7.97;95.17;102646.81;5034957;28;20140;-73
2021/12/13 08:20:26;;;;;;;12.73;8.02;;;;;;;7.94;95.32;102644.34;5035121;28;20045;-73
2021/12/13 08:22:55;;;;;;;11.25;7.72;;;;;;;7.92;95.15;102644.41;5034904;28;20064;-75
2021/12/13 08:25:27;;;;;;;12.77;8.05;;;;;;;8.00;94.54;102654.66;5033386;28;20087;-75
2021/12/13 08:27:57;;;;;;;14.38;8.10;;;;;;;8.03;94.69;102649.19;5035069;28;20029;-75
2021/12/13 08:30:34;;;;;;;12.00;8.27;;;;;;;8.04;94.50;102647.38;5034769;28;20034;-75
2021/12/13 08:33:09;;;;;;;15.68;8.63;;;;;;;8.06;94.20;102662.28;5033133;28;20044;-75
2021/12/13 08:35:55;;;;;;;21.45;9.32;;;;;;;8.05;94.51;102667.66;5034870;28;20061;-75
2021/12/13 08:38:36;;;;;;;14.27;8.18;;;;;;;8.04;94.46;102671.25;5034813;28;20073;-78
2021/12/13 08:41:07;;;;;;;18.75;9.43;;;;;;;8.06;94.60;102662.28;5034937;28;20040;-72
2021/12/13 08:43:35;;;;;;;;;;;;;;;8.10;94.17;102668.28;5034690;28;20496;-74
2021/12/13 08:46:02;;;;;;;12.02;7.93;;;;;;;8.09;94.43;102669.22;5016822;28;20327;-74
2021/12/13 08:48:28;;;;;;;18.98;8.98;;;;;;;8.10;94.72;102682.38;5034406;28;20033;-74
2021/12/13 08:50:57;;;;;;;16.33;8.38;;;;;;;8.22;93.70;102682.72;5034102;28;20068;-75
2021/12/13 08:53:30;;;;;;;13.63;7.93;;;;;;;8.27;93.49;102681.53;5034268;28;20029;-79
2021/12/13 08:56:10;;;;;;;16.08;9.20;;;;;;;8.30;93.67;102688.50;5034404;28;20033;-74
2021/12/13 08:58:36;;;;;;;13.80;8.02;;;;;;;8.33;93.00;102687.44;5034335;28;20040;-73
2021/12/13 09:01:09;;;;;;;12.30;8.18;;;;;;;8.33;93.28;102700.72;5034133;28;20470;-73
2021/12/13 09:03:39;;;;;;;12.35;8.00;;;;;;;8.35;93.48;102699.72;5034361;28;20021;-72
2021/12/13 09:06:17;;;;;;;11.27;7.30;;;;;;;8.40;92.66;102700.31;5034184;28;20025;-72
2021/12/13 09:08:48;;;;;;;13.30;8.35;;;;;;;8.40;92.85;102705.63;5033966;28;20027;-73
2021/12/13 09:11:33;;;;;;;14.95;8.70;;;;;;;8.44;92.57;102719.63;5034324;28;20025;-73
2021/12/13 09:14:13;;;;;;;17.10;8.38;;;;;;;8.46;92.61;102723.94;5016493;28;20071;-73
2021/12/13 09:16:56;;;;;;;17.53;8.60;;;;;;;8.43;92.57;102726.72;5033965;28;20041;-74
2021/12/13 09:19:28;;;;;;;15.95;8.82;;;;;;;8.46;92.12;102731.88;5033027;28;20752;-73
2021/12/13 09:22:20;;;;;;;;;;;;;;;8.50;91.77;102737.88;5016578;28;20029;-75
2021/12/13 09:25:12;;;;;;;19.67;9.20;;;;;;;8.49;92.26;102740.63;5030023;28;19917;-73
2021/12/13 09:27:44;;;;;;;14.02;9.40;;;;;;;8.47;92.64;102740.69;5032438;28;20040;-73
2021/12/13 09:30:12;;;;;;;17.00;9.48;;;;;;;8.47;92.67;102744.19;5033866;28;20044;-73
2021/12/13 09:32:49;;;;;;;17.10;9.40;;;;;;;8.49;92.41;102745.91;5033391;28;20025;-74
2021/12/13 09:35:34;;;;;;;16.80;9.55;;;;;;;8.49;92.64;102752.06;5033993;28;20025;-73
2021/12/13 09:38:23;;;;;;;19.00;10.05;;;;;;;8.53;92.61;102753.63;5034260;28;20061;-72
2021/12/13 09:41:01;;;;;;;15.90;9.13;;;;;;;8.57;91.82;102760.50;5032939;28;20539;-72
2021/12/13 09:43:54;;;;;;;14.27;9.48;;;;;;;8.60;92.70;102760.34;5033867;28;20036;-77
2021/12/13 09:46:31;;;;;;;16.83;10.00;;;;;;;8.60;92.30;102757.69;5033565;28;20036;-75
2021/12/13 09:48:58;;;;;;;15.73;9.18;;;;;;;8.58;92.57;102759.59;5015620;28;20095;-76
2021/12/13 09:51:35;;;;;;;15.57;8.85;;;;;;;8.58;91.97;102756.06;5032127;28;20037;-76
2021/12/13 09:54:06;;;;;;;14.20;9.50;;;;;;;8.62;92.25;102750.50;5033528;28;20055;-74
2021/12/13 09:56:36;;;;;;;16.20;9.75;;;;;;;8.67;92.23;102752.91;5033328;28;20031;-76
2021/12/13 09:59:15;;;;;;;15.63;9.68;;;;;;;8.70;92.13;102752.75;5032906;28;20060;-74
2021/12/13 10:01:42;;;;;;;15.00;9.13;;;;;;;8.72;91.75;102752.66;5033298;28;20029;-74
2021/12/13 10:04:13;;;;;;;17.92;10.27;;;;;;;8.74;92.02;102759.63;5033167;28;20040;-74
2021/12/13 10:06:59;;;;;;;14.20;8.93;;;;;;;8.77;91.36;102756.81;5033415;28;20041;-73
2021/12/13 10:09:42;;;;;;;15.00;9.55;;;;;;;8.78;91.13;102758.53;5034039;28;20021;-76
2021/12/13 10:12:20;;;;;;;16.70;9.40;;;;;;;8.82;90.69;102768.06;5033289;28;20025;-74
2021/12/13 10:14:59;;;;;;;15.55;9.25;;;;;;;8.88;90.10;102769.50;5033654;28;20029;-74
2021/12/13 10:17:38;;;;;;;16.35;9.15;;;;;;;8.83;91.17;102760.94;5033696;28;20029;-78
2021/12/13 10:20:12;;;;;;;16.65;9.63;;;;;;;8.79;91.24;102756.72;5015118;28;20049;-73
2021/12/13 10:22:38;;;;;;;18.83;10.52;;;;;;;8.79;91.36;102760.25;5033139;28;20037;-72
2021/12/13 10:25:19;;;;;;;18.70;9.80;;;;;;;8.86;90.16;102754.63;5032833;28;20056;-73
2021/12/13 10:27:45;;;;;;;20.13;9.60;;;;;;;8.87;90.62;102751.88;5033622;28;20030;-72
2021/12/13 10:30:29;;;;;;;14.43;9.73;;;;;;;8.88;90.77;102758.03;5034468;28;20029;-72
2021/12/13 10:32:55;;;;;;;19.85;10.30;;;;;;;8.90;90.81;102767.66;5037088;28;20029;-73
2021/12/13 10:35:25;;;;;;;20.00;10.65;;;;;;;8.93;90.61;102761.34;5036604;28;20115;-76
2021/12/13 10:37:56;;;;;;;21.17;11.02;;;;;;;8.95;90.47;102765.59;5036410;28;20031;-76
2021/12/13 10:40:29;;;;;;;20.42;9.82;;;;;;;8.98;90.89;102764.59;5037430;28;20374;-76
2021/12/13 10:43:03;;;;;;;18.42;10.32;;;;;;;9.04;89.93;102764.25;5036787;28;20195;-75
2021/12/13 10:45:33;;;;;;;17.73;10.07;;;;;;;9.02;90.12;102757.31;5019365;28;20025;-75
2021/12/13 10:48:05;;;;;;;19.50;10.23;;;;;;;8.95;90.47;102747.00;5036180;28;20429;-74
2021/12/13 10:50:37;;;;;;;19.90;11.73;;;;;;;8.94;90.95;102755.94;5036486;28;20021;-76
2021/12/13 10:53:05;;;;;;;19.70;10.60;;;;;;;8.97;90.47;102755.78;5036909;28;20029;-75
2021/12/13 10:55:39;;;;;;;22.02;11.02;;;;;;;8.97;90.18;102760.22;5036883;28;20041;-75
2021/12/13 10:58:05;;;;;;;18.92;10.70;;;;;;;8.95;90.75;102752.31;5037128;28;20462;-76
2021/12/13 11:00:37;;;;;;;20.60;10.65;;;;;;;8.98;90.10;102749.50;5019266;28;20033;-77
2021/12/13 11:03:08;;;;;;;23.95;11.45;;;;;;;8.97;90.59;102752.25;5036516;28;20033;-77
2021/12/13 11:05:34;;;;;;;21.42;12.25;;;;;;;9.07;89.61;102749.97;5036723;28;20021;-77
2021/12/13 11:08:03;;;;;;;23.63;11.68;;;;;;;9.07;89.94;102740.19;5036056;28;20083;-75
2021/12/13 11:10:40;;;;;;;19.38;11.10;;;;;;;9.05;90.62;102738.56;5036698;28;20099;-76
2021/12/13 11:13:06;;;;;;;19.60;11.30;;;;;;;9.08;89.66;102741.91;5036643;28;20029;-76
2021/12/13 11:15:36;;;;;;;18.02;11.32;;;;;;;9.14;90.27;102744.22;5036174;28;20035;-76
2021/12/13 11:18:07;;;;;;;26.03;12.80;;;;;;;9.18;90.05;102747.56;5036284;28;20061;-76
2021/12/13 11:20:43;;;;;;;26.67;12.50;;;;;;;9.18;89.80;102745.78;5036709;28;20276;-75
2021/12/13 11:23:10;;;;;;;21.27;11.68;;;;;;;9.20;89.07;102747.50;5036045;28;20106;-75
2021/12/13 11:25:46;;;;;;;21.13;12.40;;;;;;;9.20;89.43;102742.19;5036176;28;20025;-73
2021/12/13 11:28:13;;;;;;;20.52;11.88;;;;;;;9.21;89.67;102742.13;5036550;28;20111;-76
2021/12/13 11:30:40;;;;;;;21.98;12.77;;;;;;;9.20;89.90;102744.84;5018716;28;20033;-75
2021/12/13 11:33:09;;;;;;;18.92;11.40;;;;;;;9.18;89.82;102742.25;5036653;28;20033;-74
2021/12/13 11:36:12;;;;;;;19.33;11.27;;;;;;;9.15;89.65;102747.75;5035914;28;20468;-76
2021/12/13 11:39:15;;;;;;;22.52;11.90;;;;;;;9.18;89.48;102745.78;5017944;28;20060;-77
2021/12/13 11:42:17;;;;;;;29.52;11.63;;;;;;;9.19;89.33;102751.94;5034627;28;20033;-74
2021/12/13 11:45:02;;;;;;;22.05;11.70;;;;;;;9.20;89.11;102745.72;5035301;28;20036;-75
2021/12/13 11:48:03;;;;;;;20.98;11.65;;;;;;;9.21;89.17;102746.56;5035864;28;20029;-74
2021/12/13 11:51:00;;;;;;;19.17;11.48;;;;;;;9.16;88.78;102747.66;5035792;28;20030;-73
2021/12/13 11:53:50;;;;;;;19.05;11.98;;;;;;;9.16;89.24;102744.16;5035581;28;20025;-74
2021/12/13 11:56:49;;;;;;;22.25;12.57;;;;;;;9.18;89.62;102748.44;5035929;28;20033;-74
2021/12/13 11:59:52;;;;;;;20.95;11.50;;;;;;;9.24;89.85;102738.41;5035676;28;20067;-74
2021/12/13 12:02:26;;;;;;;25.90;11.48;;;;;;;9.30;88.70;102738.94;5035362;28;20048;-74
2021/12/13 12:05:38;;;;;;;16.95;11.05;;;;;;;9.29;88.70;102739.88;5034998;28;20032;-75